Home > Products > Valid Products > TAF

000
FTUS45 KVEF 222300
TAFLAS
TAF
KLAS 222320Z 2300/2324 VRB06KT P6SM SCT250
     FM230300 21008KT P6SM SCT250
     FM231800 15008KT P6SM FEW250=



000
FTUS45 KVEF 222300
TAFVGT
TAF
KVGT 222320Z 2300/2324 15007KT P6SM SCT250
     FM230300 VRB05KT P6SM SCT250
     FM230600 33006KT P6SM SCT250
     FM231800 15006KT P6SM FEW250=



000
FTUS45 KVEF 222300
TAFBIH
TAF
KBIH 222320Z 2300/2324 17008KT P6SM SCT250
     FM230400 34007KT P6SM SCT250
     FM231800 17009KT P6SM SCT250=



000
FTUS45 KVEF 222300
TAFEED
TAF
KEED 222320Z 2300/2324 VRB05KT P6SM FEW250
     FM230200 26007KT P6SM FEW250
     FM231800 06006KT P6SM FEW250=



000
FTUS45 KVEF 222300
TAFDAG
TAF
KDAG 222320Z 2300/2324 03005KT P6SM FEW250
     FM230300 27007KT P6SM FEW250
     FM232000 33007KT P6SM FEW250=



000
FTUS45 KVEF 222000 AAA
TAFLAS
TAF AMD
KLAS 222032Z 2221/2318 08006KT P6SM SCT250
     FM230300 19008KT P6SM SCT250=



000
FTUS45 KVEF 222000 AAA
TAFLAS
TAF AMD
KLAS 222032Z 2221/2318 08006KT P6SM SCT250
     FM230300 19008KT P6SM SCT250=



000
FTUS45 KVEF 221700
TAFDAG
TAF
KDAG 221720Z 2218/2318 27009KT P6SM FEW250
     FM222100 06005KT P6SM FEW250
     FM230300 27007KT P6SM FEW250=



000
FTUS45 KVEF 221700
TAFBIH
TAF
KBIH 221720Z 2218/2318 33007KT P6SM FEW250
     FM221900 17008KT P6SM BKN250
     FM230300 34007KT P6SM SCT250=



000
FTUS45 KVEF 221700
TAFVGT
TAF
KVGT 221720Z 2218/2318 VRB05KT P6SM SCT250
     FM222100 12007KT P6SM SCT250
     FM230300 VRB05KT P6SM FEW250
     FM230700 33006KT P6SM FEW250=



000
FTUS45 KVEF 221700
TAFEED
TAF
KEED 221720Z 2218/2318 VRB05KT P6SM SCT250
     FM222100 16007KT P6SM FEW250
     FM230200 24007KT P6SM FEW250=



000
FTUS45 KVEF 221700
TAFLAS
TAF
KLAS 221720Z 2218/2318 VRB05KT P6SM SCT250
     FM221900 08006KT P6SM SCT250
     FM230200 19008KT P6SM SCT250=



000
FTUS45 KVEF 221700
TAFVGT
TAF
KVGT 221720Z 2218/2318 VRB05KT P6SM SCT250
     FM222100 12007KT P6SM SCT250
     FM230300 VRB05KT P6SM FEW250
     FM230700 33006KT P6SM FEW250=



000
FTUS45 KVEF 221700
TAFLAS
TAF
KLAS 221720Z 2218/2318 VRB05KT P6SM SCT250
     FM221900 08006KT P6SM SCT250
     FM230200 19008KT P6SM SCT250=



000
FTUS45 KVEF 221700
TAFBIH
TAF
KBIH 221720Z 2218/2318 33007KT P6SM FEW250
     FM221900 17008KT P6SM BKN250
     FM230300 34007KT P6SM SCT250=



000
FTUS45 KVEF 221700
TAFDAG
TAF
KDAG 221720Z 2218/2318 27009KT P6SM FEW250
     FM222100 06005KT P6SM FEW250
     FM230300 27007KT P6SM FEW250=



000
FTUS45 KVEF 221700
TAFEED
TAF
KEED 221720Z 2218/2318 VRB05KT P6SM SCT250
     FM222100 16007KT P6SM FEW250
     FM230200 24007KT P6SM FEW250=



000
FTUS45 KVEF 221400 AAA
TAFLAS
TAF AMD
KLAS 221440Z 2215/2312 VRB05KT P6SM SCT250
     FM221900 08006KT P6SM SCT250
     FM230200 19008KT P6SM SCT250=



000
FTUS45 KVEF 221100
TAFEED
TAF
KEED 221120Z 2212/2312 23006KT P6SM FEW250
     FM221300 VRB05KT P6SM SCT250
     FM222100 16007KT P6SM FEW250
     FM230200 24007KT P6SM FEW250=



000
FTUS45 KVEF 221100
TAFBIH
TAF
KBIH 221120Z 2212/2312 33007KT P6SM FEW250
     FM221900 17008KT P6SM BKN250
     FM230300 34007KT P6SM SCT250=



000
FTUS45 KVEF 221100
TAFVGT
TAF
KVGT 221120Z 2212/2312 31007KT P6SM FEW250
     FM221800 12007KT P6SM SCT250
     FM230300 VRB05KT P6SM FEW250
     FM230700 33006KT P6SM FEW250=



000
FTUS45 KVEF 221100
TAFDAG
TAF
KDAG 221120Z 2212/2312 27009KT P6SM FEW250
     FM221800 VRB05KT P6SM FEW250
     FM230300 27007KT P6SM FEW250=



000
FTUS45 KVEF 221100
TAFLAS
TAF
KLAS 221120Z 2212/2312 21007KT P6SM FEW250
     FM221500 VRB05KT P6SM SCT250
     FM221900 08006KT P6SM SCT250
     FM230200 19008KT P6SM FEW250=



000
FTUS45 KVEF 220800 AAA
TAFLAS
TAF AMD
KLAS 220846Z 2209/2306 19010KT P6SM SCT250
     FM221500 VRB05KT P6SM SCT250
     FM221900 08006KT P6SM SCT250
     FM230200 19008KT P6SM FEW250=



000
FTUS45 KVEF 220500
TAFDAG
TAF
KDAG 220520Z 2206/2306 27009KT P6SM FEW250
     FM221800 VRB05KT P6SM FEW250
     FM230300 27007KT P6SM FEW250=



000
FTUS45 KVEF 220500
TAFLAS
TAF
KLAS 220520Z 2206/2306 19010KT P6SM SCT250
     FM221500 VRB05KT P6SM SCT250
     FM221900 08006KT P6SM SCT250
     FM230200 19008KT P6SM FEW250=



000
FTUS45 KVEF 220500
TAFBIH
TAF
KBIH 220520Z 2206/2306 33007KT P6SM FEW250
     FM221900 17008KT P6SM BKN250
     FM230300 34007KT P6SM SCT250=



000
FTUS45 KVEF 220500
TAFEED
TAF
KEED 220520Z 2206/2306 25006KT P6SM FEW250
     FM221300 VRB05KT P6SM SCT250
     FM222100 16007KT P6SM FEW250
     FM230200 24007KT P6SM FEW250=



000
FTUS45 KVEF 220500
TAFVGT
TAF
KVGT 220520Z 2206/2306 31007KT P6SM SCT250
     FM221800 12007KT P6SM SCT250
     FM230300 VRB05KT P6SM FEW250=



000
FTUS45 KVEF 220500
TAFEED
TAF
KEED 220520Z 2206/2306 25006KT P6SM FEW250
     FM221300 VRB05KT P6SM SCT250
     FM222100 16007KT P6SM FEW250
     FM230200 24007KT P6SM FEW250=



000
FTUS45 KVEF 220500
TAFDAG
TAF
KDAG 220520Z 2206/2306 27009KT P6SM FEW250
     FM221800 VRB05KT P6SM FEW250
     FM230300 27007KT P6SM FEW250=



000
FTUS45 KVEF 220500
TAFLAS
TAF
KLAS 220520Z 2206/2306 19010KT P6SM SCT250
     FM221500 VRB05KT P6SM SCT250
     FM221900 08006KT P6SM SCT250
     FM230200 19008KT P6SM FEW250=



000
FTUS45 KVEF 220500
TAFBIH
TAF
KBIH 220520Z 2206/2306 33007KT P6SM FEW250
     FM221900 17008KT P6SM BKN250
     FM230300 34007KT P6SM SCT250=



000
FTUS45 KVEF 220500
TAFVGT
TAF
KVGT 220520Z 2206/2306 31007KT P6SM SCT250
     FM221800 12007KT P6SM SCT250
     FM230300 VRB05KT P6SM FEW250=



000
FTUS45 KVEF 220200 AAA
TAFLAS
TAF AMD
KLAS 220245Z 2203/2224 21012KT P6SM SCT250
     FM220600 20008KT P6SM SCT250
     FM221500 VRB05KT P6SM SCT250
     FM221900 08006KT P6SM SCT250=



000
FTUS45 KVEF 220200 AAA
TAFLAS
TAF AMD
KLAS 220245Z 2203/2224 21012KT P6SM SCT250
     FM220600 20008KT P6SM SCT250
     FM221500 VRB05KT P6SM SCT250
     FM221900 08006KT P6SM SCT250=



000
FTUS45 KVEF 212300
TAFDAG
TAF
KDAG 212320Z 2200/2224 27009KT P6SM SCT250
     FM221800 VRB05KT P6SM SCT250=



000
FTUS45 KVEF 212300
TAFLAS
TAF
KLAS 212320Z 2200/2224 21012KT P6SM SCT250
     FM220600 20008KT P6SM SCT250
     FM221500 VRB05KT P6SM SCT250
     FM221900 08006KT P6SM SCT250=



000
FTUS45 KVEF 212300
TAFVGT
TAF
KVGT 212320Z 2200/2224 19011KT P6SM SCT250
     FM220300 25008KT P6SM SCT250
     FM220700 31007KT P6SM SCT250
     FM221800 12007KT P6SM SCT250=



000
FTUS45 KVEF 212300
TAFDAG
TAF
KDAG 212320Z 2200/2224 27009KT P6SM SCT250
     FM221800 VRB05KT P6SM SCT250=



000
FTUS45 KVEF 212300
TAFBIH
TAF
KBIH 212320Z 2200/2224 VRB05KT P6SM BKN250
     FM220300 35007KT P6SM BKN250
     FM221900 17008KT P6SM BKN250=



000
FTUS45 KVEF 212300
TAFEED
TAF
KEED 212320Z 2200/2224 25006KT P6SM SCT250
     FM221300 VRB05KT P6SM SCT250=



000
FTUS45 KVEF 212300
TAFLAS
TAF
KLAS 212320Z 2200/2224 21012KT P6SM SCT250
     FM220600 20008KT P6SM SCT250
     FM221500 VRB05KT P6SM SCT250
     FM221900 08006KT P6SM SCT250=



000
FTUS45 KVEF 212300
TAFVGT
TAF
KVGT 212320Z 2200/2224 19011KT P6SM SCT250
     FM220300 25008KT P6SM SCT250
     FM220700 31007KT P6SM SCT250
     FM221800 12007KT P6SM SCT250=



000
FTUS45 KVEF 212300
TAFBIH
TAF
KBIH 212320Z 2200/2224 VRB05KT P6SM BKN250
     FM220300 35007KT P6SM BKN250
     FM221900 17008KT P6SM BKN250=



000
FTUS45 KVEF 212300
TAFEED
TAF
KEED 212320Z 2200/2224 25006KT P6SM SCT250
     FM221300 VRB05KT P6SM SCT250=



000
FTUS45 KVEF 212000 AAA
TAFLAS
TAF AMD
KLAS 212025Z 2120/2218 21012G20KT P6SM SCT250
     FM220600 21008KT P6SM SCT250=



000
FTUS45 KVEF 212000 AAA
TAFVGT
TAF AMD
KVGT 212025Z 2120/2218 19010G18KT P6SM SCT250
     FM220400 31007KT P6SM SCT250=



000
FTUS45 KVEF 211700
TAFEED
TAF
KEED 211730Z 2118/2218 19008KT P6SM FEW250
     FM220300 25006KT P6SM SCT250=



000
FTUS45 KVEF 211700
TAFBIH
TAF
KBIH 211730Z 2118/2218 35010KT P6SM BKN250
     FM220100 VRB05KT P6SM BKN250
     FM220300 35007KT P6SM SCT250=



000
FTUS45 KVEF 211700
TAFDAG
TAF
KDAG 211730Z 2118/2218 28014KT P6SM SCT250
     FM212200 27010KT P6SM SCT250=



000
FTUS45 KVEF 211700
TAFVGT
TAF
KVGT 211730Z 2118/2218 16010KT P6SM FEW250
     FM212100 19010KT P6SM SCT250
     FM220400 31007KT P6SM SCT250=



000
FTUS45 KVEF 211700
TAFLAS
TAF
KLAS 211730Z 2118/2218 18012KT P6SM FEW250
     FM212100 21012KT P6SM SCT250
     FM220600 21008KT P6SM SCT250=



000
FTUS45 KVEF 211400 AAA
TAFLAS
TAF AMD
KLAS 211444Z 2115/2212 18010KT P6SM FEW250
     FM212000 21010KT P6SM SCT250=



000
FTUS45 KVEF 211400 AAA
TAFLAS
TAF AMD
KLAS 211444Z 2115/2212 18010KT P6SM FEW250
     FM212000 21010KT P6SM SCT250=



000
FTUS45 KVEF 211100
TAFDAG
TAF
KDAG 211120Z 2112/2212 27014KT P6SM FEW250
     FM212200 28010KT P6SM FEW250=



000
FTUS45 KVEF 211100
TAFLAS
TAF
KLAS 211120Z 2112/2212 19010KT P6SM FEW160
     FM211500 VRB04KT P6SM FEW250
     FM211900 20007KT P6SM FEW250=



000
FTUS45 KVEF 211100
TAFBIH
TAF
KBIH 211120Z 2112/2212 35007KT P6SM FEW250
     FM212200 14006KT P6SM FEW250
     FM220300 34007KT P6SM FEW250=



000
FTUS45 KVEF 211100
TAFDAG
TAF
KDAG 211120Z 2112/2212 27014KT P6SM FEW250
     FM212200 28010KT P6SM FEW250=



000
FTUS45 KVEF 211100
TAFBIH
TAF
KBIH 211120Z 2112/2212 35007KT P6SM FEW250
     FM212200 14006KT P6SM FEW250
     FM220300 34007KT P6SM FEW250=



000
FTUS45 KVEF 211100
TAFLAS
TAF
KLAS 211120Z 2112/2212 19010KT P6SM FEW160
     FM211500 VRB04KT P6SM FEW250
     FM211900 20007KT P6SM FEW250=



000
FTUS45 KVEF 211100
TAFVGT
TAF
KVGT 211120Z 2112/2212 VRB05KT P6SM FEW160
     FM211500 VRB05KT P6SM FEW250
     FM212000 19007KT P6SM FEW250
     FM220300 31007KT P6SM SKC=



000
FTUS45 KVEF 211100
TAFLAS
TAF
KLAS 211120Z 2112/2212 19010KT P6SM FEW160
     FM211500 VRB04KT P6SM FEW250
     FM211900 20007KT P6SM FEW250=



000
FTUS45 KVEF 211100
TAFEED
TAF
KEED 211120Z 2112/2212 VRB04KT P6SM FEW250
     FM211800 17007KT P6SM FEW250
     FM220300 25006KT P6SM FEW250=



000
FTUS45 KVEF 211100
TAFEED
TAF
KEED 211120Z 2112/2212 VRB04KT P6SM FEW250
     FM211800 17007KT P6SM FEW250
     FM220300 25006KT P6SM FEW250=



000
FTUS45 KVEF 211100
TAFLAS
TAF
KLAS 211120Z 2112/2212 19010KT P6SM FEW160
     FM211500 VRB04KT P6SM FEW250
     FM211900 20007KT P6SM FEW250=



000
FTUS45 KVEF 211100
TAFVGT
TAF
KVGT 211120Z 2112/2212 VRB05KT P6SM FEW160
     FM211500 VRB05KT P6SM FEW250
     FM212000 19007KT P6SM FEW250
     FM220300 31007KT P6SM SKC=



000
FTUS45 KVEF 210800 AAA
TAFLAS
TAF AMD
KLAS 210851Z 2109/2206 19010KT P6SM FEW160
     FM211500 VRB04KT P6SM FEW250
     FM211900 20007KT P6SM FEW250=



000
FTUS45 KVEF 210800 AAA
TAFLAS
TAF AMD
KLAS 210851Z 2109/2206 19010KT P6SM FEW160
     FM211500 VRB04KT P6SM FEW250
     FM211900 20007KT P6SM FEW250=



000
FTUS45 KVEF 210500
TAFDAG
TAF
KDAG 210520Z 2106/2206 26012KT P6SM FEW140 BKN250
     FM211200 27012KT P6SM FEW250
     FM212200 28008KT P6SM FEW250=



000
FTUS45 KVEF 210500
TAFEED
TAF
KEED 210520Z 2106/2206 24007KT P6SM SCT250
     FM211300 VRB05KT P6SM FEW250
     FM211800 17007KT P6SM FEW250
     FM220300 25006KT P6SM FEW250=



000
FTUS45 KVEF 210500
TAFVGT
TAF
KVGT 210520Z 2106/2206 VRB05KT P6SM FEW140 BKN250
     FM211500 VRB05KT P6SM SCT250
     FM212000 19007KT P6SM FEW250
     FM220300 31007KT P6SM SKC=



000
FTUS45 KVEF 210500
TAFBIH
TAF
KBIH 210520Z 2106/2206 35007KT P6SM FEW250
     FM212200 14006KT P6SM FEW250
     FM220300 34007KT P6SM FEW250=



000
FTUS45 KVEF 210500
TAFLAS
TAF
KLAS 210520Z 2106/2206 20010KT P6SM FEW140 BKN250
     FM211500 VRB04KT P6SM FEW250
     FM211900 20007KT P6SM FEW250=



000
FTUS45 KVEF 210200 AAA
TAFLAS
TAF AMD
KLAS 210245Z 2103/2124 21010KT P6SM FEW140 BKN250
     FM211500 VRB04KT P6SM FEW250
     FM211900 20007KT P6SM FEW250=



000
FTUS45 KVEF 210200 AAA
TAFLAS
TAF AMD
KLAS 210245Z 2103/2124 21010KT P6SM FEW140 BKN250
     FM211500 VRB04KT P6SM FEW250
     FM211900 20007KT P6SM FEW250=



000
FTUS45 KVEF 210200 AAA
TAFLAS
TAF AMD
KLAS 210245Z 2103/2124 21010KT P6SM FEW140 BKN250
     FM211500 VRB04KT P6SM FEW250
     FM211900 20007KT P6SM FEW250=



000
FTUS45 KVEF 210200 AAA
TAFLAS
TAF AMD
KLAS 210245Z 2103/2124 21010KT P6SM FEW140 BKN250
     FM211500 VRB04KT P6SM FEW250
     FM211900 20007KT P6SM FEW250=



000
FTUS45 KVEF 202300
TAFLAS
TAF
KLAS 202320Z 2100/2124 16008KT P6SM SCT140 SCT250
     FM210300 21010KT P6SM FEW140 BKN250
     FM211500 VRB04KT P6SM FEW250
     FM211900 20007KT P6SM FEW250=



000
FTUS45 KVEF 202300
TAFEED
TAF
KEED 202320Z 2100/2124 17007KT P6SM FEW140 FEW250
     FM210300 24006KT P6SM FEW140 BKN250
     FM211300 VRB05KT P6SM FEW250
     FM211800 17007KT P6SM FEW250=



000
FTUS45 KVEF 202300
TAFDAG
TAF
KDAG 202320Z 2100/2124 26012KT P6SM FEW140 BKN250
     FM211200 27012KT P6SM FEW250=



000
FTUS45 KVEF 202300
TAFLAS
TAF
KLAS 202320Z 2100/2124 16008KT P6SM SCT140 SCT250
     FM210300 21010KT P6SM FEW140 BKN250
     FM211500 VRB04KT P6SM FEW250
     FM211900 20007KT P6SM FEW250=



000
FTUS45 KVEF 202300
TAFVGT
TAF
KVGT 202320Z 2100/2124 15007KT P6SM SCT140 SCT250
     FM210200 VRB05KT P6SM FEW140 BKN250
     FM212000 19007KT P6SM FEW250=



000
FTUS45 KVEF 202300
TAFBIH
TAF
KBIH 202320Z 2100/2124 17015G25KT P6SM SCT120 SCT250
     FM210200 15010KT P6SM SCT120 SCT250
     FM210600 35007KT P6SM FEW250=



000
FTUS45 KVEF 202000 AAA
TAFLAS
TAF AMD
KLAS 202051Z 2021/2118 08007KT P6SM FEW140
     FM202300 16008KT P6SM SCT140 SCT250
     FM210300 21010KT P6SM FEW140 BKN250
     FM211500 VRB04KT P6SM FEW250=



000
FTUS45 KVEF 202000 AAA
TAFLAS
TAF AMD
KLAS 202051Z 2021/2118 08007KT P6SM FEW140
     FM202300 16008KT P6SM SCT140 SCT250
     FM210300 21010KT P6SM FEW140 BKN250
     FM211500 VRB04KT P6SM FEW250=



000
FTUS45 KVEF 201700
TAFLAS
TAF
KLAS 201721Z 2018/2118 07007KT P6SM FEW140
     FM202300 16008KT P6SM SCT140 SCT250
     FM210300 21010KT P6SM FEW140 BKN250
     FM211500 VRB04KT P6SM FEW250=



000
FTUS45 KVEF 201700
TAFEED
TAF
KEED 201721Z 2018/2118 VRB05KT P6SM SKC
     FM202000 17007KT P6SM FEW140 FEW250
     FM210300 24006KT P6SM FEW140 BKN250
     FM211300 VRB05KT P6SM FEW250=



000
FTUS45 KVEF 201700
TAFDAG
TAF
KDAG 201721Z 2018/2118 28008KT P6SM FEW250
     FM202000 07007KT P6SM SCT250
     FM202300 26012KT P6SM FEW140 BKN250
     FM211200 27012KT P6SM FEW250=



000
FTUS45 KVEF 201700
TAFVGT
TAF
KVGT 201721Z 2018/2118 VRB05KT P6SM SKC
     FM202000 15007KT P6SM SCT140 SCT250
     FM210200 VRB05KT P6SM FEW140 BKN250=



000
FTUS45 KVEF 201700
TAFBIH
TAF
KBIH 201721Z 2018/2118 VRB06KT P6SM SKC
     FM202000 17015G25KT P6SM SCT120 SCT250
     FM210200 15010KT P6SM SCT120 SCT250
     FM210600 35007KT P6SM FEW250=



000
FTUS45 KVEF 201700
TAFLAS
TAF
KLAS 201721Z 2018/2118 07007KT P6SM FEW140
     FM202300 16008KT P6SM SCT140 SCT250
     FM210300 21010KT P6SM FEW140 BKN250
     FM211500 VRB04KT P6SM FEW250=



000
FTUS45 KVEF 201400 AAA
TAFLAS
TAF AMD
KLAS 201442Z 2015/2112 VRB05KT P6SM SKC
     FM201700 07007KT P6SM FEW140
     FM202300 17008KT P6SM SCT140
     FM210300 21010KT P6SM FEW140=



000
FTUS45 KVEF 201400 AAA
TAFLAS
TAF AMD
KLAS 201442Z 2015/2112 VRB05KT P6SM SKC
     FM201700 07007KT P6SM FEW140
     FM202300 17008KT P6SM SCT140
     FM210300 21010KT P6SM FEW140=



000
FTUS45 KVEF 201100
TAFLAS
TAF
KLAS 201120Z 2012/2112 20008KT P6SM SKC
     FM201400 VRB05KT P6SM SKC
     FM201700 07007KT P6SM FEW140
     FM202200 17008KT P6SM SCT140
     FM210300 21010KT P6SM FEW140=



000
FTUS45 KVEF 201100
TAFEED
TAF
KEED 201120Z 2012/2112 VRB05KT P6SM SKC
     FM202000 17007KT P6SM FEW140
     FM210300 21006KT P6SM FEW140=



000
FTUS45 KVEF 201100
TAFLAS
TAF
KLAS 201120Z 2012/2112 20008KT P6SM SKC
     FM201400 VRB05KT P6SM SKC
     FM201700 07007KT P6SM FEW140
     FM202200 17008KT P6SM SCT140
     FM210300 21010KT P6SM FEW140=



000
FTUS45 KVEF 201100
TAFBIH
TAF
KBIH 201120Z 2012/2112 32006KT P6SM SKC
     FM201900 17015G25KT P6SM SCT120
     FM210200 18010KT P6SM SCT120 BKN150
     FM210800 35007KT P6SM SCT120 BKN150=



000
FTUS45 KVEF 201100
TAFVGT
TAF
KVGT 201120Z 2012/2112 VRB05KT P6SM SKC
     FM202000 15007KT P6SM SCT140
     FM210200 VRB05KT P6SM FEW140=



000
FTUS45 KVEF 201100
TAFDAG
TAF
KDAG 201120Z 2012/2112 25008KT P6SM SKC
     FM201900 07007KT P6SM SKC
     FM202200 26011KT P6SM FEW100
     FM210200 25012KT P6SM FEW100 SCT140=



000
FTUS45 KVEF 200500
TAFDAG
TAF
KDAG 200520Z 2006/2106 27007KT P6SM SKC
     FM202200 26011KT P6SM FEW100
     FM210200 22010KT P6SM FEW100 SCT140=



000
FTUS45 KVEF 200500
TAFEED
TAF
KEED 200520Z 2006/2106 25006KT P6SM SKC
     FM201200 VRB05KT P6SM SKC
     FM202000 17007KT P6SM FEW140
     FM210300 21006KT P6SM FEW140=



000
FTUS45 KVEF 200500
TAFBIH
TAF
KBIH 200520Z 2006/2106 VRB05KT P6SM SKC
     FM200800 33006KT P6SM SKC
     FM201900 17015G25KT P6SM SCT120
     FM210200 18010KT P6SM SCT120 BKN150=



000
FTUS45 KVEF 200500
TAFLAS
TAF
KLAS 200520Z 2006/2106 20007KT P6SM SKC
     FM201400 VRB05KT P6SM SKC
     FM202000 17008KT P6SM SCT140
     FM210300 21007KT P6SM FEW140=



000
FTUS45 KVEF 200500
TAFVGT
TAF
KVGT 200520Z 2006/2106 VRB05KT P6SM SKC
     FM202000 15007KT P6SM SCT140
     FM210200 VRB05KT P6SM FEW140=



000
FTUS45 KVEF 200500
TAFLAS
TAF
KLAS 200520Z 2006/2106 20007KT P6SM SKC
     FM201400 VRB05KT P6SM SKC
     FM202000 17008KT P6SM SCT140
     FM210300 21007KT P6SM FEW140=



000
FTUS45 KVEF 200200 AAA
TAFLAS
TAF AMD
KLAS 200246Z 2003/2024 20006KT P6SM SKC
     FM201400 VRB05KT P6SM SKC
     FM202000 17008KT P6SM FEW140=



    US Dept of Commerce
    National Oceanic and Atmospheric Administration
    National Weather Service
    1325 East West Highway
    Silver Spring, MD 20910
    Page Author: NWS Internet Services Team
Disclaimer
Information Quality
Credits
Glossary
Privacy Policy
Freedom of Information Act (FOIA)
About Us
Career Opportunities